createdAt,value
2017-08-03T00:00:23.020Z,57.84
2017-08-03T00:01:03.481Z,58.04
2017-08-03T00:01:43.931Z,57.81
2017-08-03T00:02:24.393Z,57.81
2017-08-03T00:03:04.866Z,58.04
2017-08-03T00:03:45.313Z,58.14
2017-08-03T00:04:25.773Z,58.2
2017-08-03T00:05:06.228Z,58.23
2017-08-03T00:05:46.689Z,58.11
2017-08-03T00:06:27.146Z,57.91
2017-08-03T00:07:07.600Z,57.81
2017-08-03T00:07:48.056Z,58.14
2017-08-03T00:08:28.660Z,58.01
2017-08-03T00:09:09.211Z,57.91
2017-08-03T00:11:07.109Z,58.04
2017-08-03T00:11:47.564Z,57.84
2017-08-03T00:12:28.021Z,58.3
2017-08-03T00:13:08.494Z,58.33
2017-08-03T00:13:48.975Z,58.39
2017-08-03T00:14:29.400Z,58.52
2017-08-03T00:15:09.850Z,58.49
2017-08-03T00:15:50.307Z,58.2
2017-08-03T00:16:30.758Z,58.3
2017-08-03T00:17:11.215Z,58.49
2017-08-03T00:17:51.670Z,58.52
2017-08-03T00:18:32.126Z,58.62
2017-08-03T00:19:12.667Z,58.11
2017-08-03T00:19:53.122Z,58.3
2017-08-03T00:20:33.613Z,58.2
2017-08-03T00:21:14.016Z,58.49
2017-08-03T00:21:54.484Z,58.49
2017-08-03T00:22:34.935Z,58.52
2017-08-03T00:23:15.390Z,58.2
2017-08-03T00:23:55.851Z,58.49
2017-08-03T00:24:36.300Z,58.42
2017-08-03T00:25:16.759Z,58.23
2017-08-03T00:25:57.217Z,58.42
2017-08-03T00:26:37.675Z,58.42
2017-08-03T00:27:18.124Z,58.42
2017-08-03T00:27:58.575Z,58.33
2017-08-03T00:28:39.029Z,58.42
2017-08-03T00:29:19.465Z,58.72
2017-08-03T00:29:59.908Z,58.91
2017-08-03T00:30:40.358Z,58.91
2017-08-03T00:31:20.816Z,58.91
2017-08-03T00:32:01.269Z,58.81
2017-08-03T00:32:41.738Z,58.91
2017-08-03T00:33:22.178Z,58.91
2017-08-03T00:34:02.634Z,59
2017-08-03T00:34:43.084Z,58.81
2017-08-03T00:35:23.541Z,58.81
2017-08-03T00:36:04.001Z,58.72
2017-08-03T00:36:44.455Z,58.62
2017-08-03T00:37:24.911Z,58.72
2017-08-03T00:38:05.358Z,58.42
2017-08-03T00:38:45.819Z,58.62
2017-08-03T00:39:26.275Z,58.42
2017-08-03T00:40:06.731Z,58.52
2017-08-03T00:40:47.184Z,58.49
2017-08-03T00:41:27.635Z,58.62
2017-08-03T00:42:08.081Z,59.1
2017-08-03T00:42:48.540Z,58.72
2017-08-03T00:43:28.989Z,58.81
2017-08-03T00:44:09.449Z,58.72
2017-08-03T00:44:49.903Z,59
2017-08-03T00:45:30.359Z,59.3
2017-08-03T00:46:10.809Z,59
2017-08-03T00:46:51.269Z,59.3
2017-08-03T00:47:31.717Z,59.3
2017-08-03T00:48:12.175Z,59.3
2017-08-03T00:48:52.636Z,59.3
2017-08-03T00:49:33.094Z,59.1
2017-08-03T00:50:13.554Z,59.2
2017-08-03T00:50:54.015Z,59.3
2017-08-03T00:51:34.462Z,59.3
2017-08-03T00:52:14.916Z,59.49
2017-08-03T00:52:55.371Z,59.39
2017-08-03T00:53:35.825Z,59.39
2017-08-03T00:54:16.281Z,59.3
2017-08-03T00:54:56.749Z,59.1
2017-08-03T00:55:37.209Z,59.2
2017-08-03T00:56:17.659Z,59.3
2017-08-03T00:56:58.117Z,59.3
2017-08-03T00:57:38.572Z,59.3
2017-08-03T00:58:19.036Z,59
2017-08-03T00:58:59.489Z,59.3
2017-08-03T00:59:39.940Z,59.49
2017-08-03T01:00:20.400Z,59.39
2017-08-03T01:01:00.843Z,59.3
2017-08-03T01:01:41.313Z,59.3
2017-08-03T01:02:21.759Z,59.39
2017-08-03T01:03:02.211Z,59.56
2017-08-03T01:03:42.671Z,59.59
2017-08-03T01:04:23.125Z,59.78
2017-08-03T01:05:03.586Z,59.75
2017-08-03T01:05:44.046Z,59.69
2017-08-03T01:06:24.506Z,59.66
2017-08-03T01:07:04.963Z,59.84
2017-08-03T01:07:45.425Z,59.88
2017-08-03T01:08:25.877Z,59.78
2017-08-03T01:09:06.323Z,59.75
2017-08-03T01:09:46.774Z,59.75
2017-08-03T01:10:27.219Z,59.94
2017-08-03T01:11:07.684Z,59.94
2017-08-03T01:11:48.141Z,59.84
2017-08-03T01:12:28.584Z,59.84
2017-08-03T01:13:09.031Z,60.14
2017-08-03T01:13:49.494Z,60.07
2017-08-03T01:14:29.955Z,60.24
2017-08-03T01:15:10.417Z,60.27
2017-08-03T01:15:50.877Z,60.14
2017-08-03T01:16:31.341Z,60.24
2017-08-03T01:17:11.799Z,60.27
2017-08-03T01:17:52.247Z,60.17
2017-08-03T01:18:32.694Z,60.17
2017-08-03T01:19:13.148Z,60.17
2017-08-03T01:19:53.604Z,60.27
2017-08-03T01:20:34.046Z,60.07
2017-08-03T01:21:14.496Z,59.88
2017-08-03T01:21:54.957Z,59.88
2017-08-03T01:22:35.403Z,59.88
2017-08-03T01:23:15.857Z,59.69
2017-08-03T01:23:56.308Z,59.78
2017-08-03T01:24:36.758Z,60.17
2017-08-03T01:25:17.221Z,59.97
2017-08-03T01:25:57.678Z,59.59
2017-08-03T01:26:38.138Z,60.04
2017-08-03T01:27:18.595Z,59.88
2017-08-03T01:27:59.055Z,60.46
2017-08-03T01:28:39.608Z,60.07
2017-08-03T01:29:20.011Z,60.46
2017-08-03T01:30:00.464Z,59.59
2017-08-03T01:30:40.909Z,59.56
2017-08-03T01:31:21.367Z,60.07
2017-08-03T01:32:01.823Z,60.33
2017-08-03T01:32:42.286Z,60.27
2017-08-03T01:33:22.741Z,60.33
2017-08-03T01:34:03.201Z,60.43
2017-08-03T01:34:43.653Z,60.24
2017-08-03T01:35:24.106Z,60.24
2017-08-03T01:36:04.561Z,60.04
2017-08-03T01:36:45.009Z,60.24
2017-08-03T01:37:25.462Z,60.27
2017-08-03T01:38:05.912Z,60.36
2017-08-03T01:38:46.360Z,60.33
2017-08-03T01:39:26.813Z,60.24
2017-08-03T01:40:07.265Z,60.52
2017-08-03T01:40:47.723Z,60.43
2017-08-03T01:41:28.176Z,60.62
2017-08-03T01:42:08.630Z,60.65
2017-08-03T01:42:49.077Z,60.62
2017-08-03T01:43:29.529Z,60.75
2017-08-03T01:44:09.958Z,60.62
2017-08-03T01:44:50.407Z,60.65
2017-08-03T01:45:30.866Z,60.82
2017-08-03T01:46:11.319Z,60.75
2017-08-03T01:46:51.791Z,60.82
2017-08-03T01:47:32.246Z,60.82
2017-08-03T01:48:12.704Z,60.75
2017-08-03T01:48:53.163Z,60.85
2017-08-03T01:49:33.611Z,60.75
2017-08-03T01:50:14.068Z,60.94
2017-08-03T01:50:54.526Z,60.94
2017-08-03T01:51:34.980Z,60.75
2017-08-03T01:52:15.430Z,60.85
2017-08-03T01:52:55.885Z,60.94
2017-08-03T01:53:36.333Z,60.65
2017-08-03T01:54:16.785Z,60.46
2017-08-03T01:54:57.241Z,60.75
2017-08-03T01:55:37.702Z,60.94
2017-08-03T01:56:18.159Z,60.75
2017-08-03T01:56:58.625Z,60.75
2017-08-03T01:57:39.077Z,60.75
2017-08-03T01:58:19.535Z,60.85
2017-08-03T01:58:59.996Z,60.94
2017-08-03T01:59:40.442Z,60.94
2017-08-03T02:00:20.903Z,60.65
2017-08-03T02:01:01.374Z,60.55
2017-08-03T02:01:41.835Z,60.75
2017-08-03T02:02:22.290Z,60.65
2017-08-03T02:03:02.740Z,60.65
2017-08-03T02:03:43.203Z,60.75
2017-08-03T02:04:23.663Z,60.65
2017-08-03T02:05:04.121Z,60.65
2017-08-03T02:05:44.570Z,60.75
2017-08-03T02:06:25.030Z,60.85
2017-08-03T02:07:05.490Z,60.75
2017-08-03T02:07:45.943Z,60.94
2017-08-03T02:08:26.402Z,60.85
2017-08-03T02:09:06.854Z,61.24
2017-08-03T02:09:47.304Z,61.14
2017-08-03T02:10:27.741Z,61.24
2017-08-03T02:11:08.197Z,61.14
2017-08-03T02:11:48.644Z,61.43
2017-08-03T02:12:29.108Z,61.14
2017-08-03T02:13:09.555Z,61.14
2017-08-03T02:13:50.023Z,61.33
2017-08-03T02:14:30.480Z,61.24
2017-08-03T02:15:10.937Z,61.33
2017-08-03T02:15:51.394Z,61.04
2017-08-03T02:16:31.858Z,61.14
2017-08-03T02:17:12.309Z,61.04
2017-08-03T02:17:52.765Z,61.24
2017-08-03T02:18:33.219Z,60.85
2017-08-03T02:19:13.685Z,61.52
2017-08-03T02:19:54.134Z,61.04
2017-08-03T02:20:34.590Z,61.24
2017-08-03T02:21:15.045Z,61.52
2017-08-03T02:21:55.517Z,61.62
2017-08-03T02:22:35.951Z,61.62
2017-08-03T02:23:16.430Z,61.72
2017-08-03T02:23:56.902Z,61.82
2017-08-03T02:24:37.377Z,61.43
2017-08-03T02:25:17.808Z,61.62
2017-08-03T02:25:58.275Z,61.43
2017-08-03T02:26:38.731Z,61.62
2017-08-03T02:27:19.177Z,61.62
2017-08-03T02:27:59.662Z,61.62
2017-08-03T02:28:40.122Z,61.52
2017-08-03T02:29:20.582Z,61.43
2017-08-03T02:30:01.034Z,61.52
2017-08-03T02:30:41.488Z,61.33
2017-08-03T02:31:21.938Z,61.62
2017-08-03T02:32:02.384Z,61.52
2017-08-03T02:32:42.843Z,61.62
2017-08-03T02:33:23.301Z,61.52
2017-08-03T02:34:03.751Z,61.52
2017-08-03T02:34:44.207Z,61.82
2017-08-03T02:35:24.656Z,61.62
2017-08-03T02:36:05.108Z,61.43
2017-08-03T02:36:45.573Z,61.52
2017-08-03T02:37:26.028Z,61.43
2017-08-03T02:38:06.488Z,61.3
2017-08-03T02:38:46.957Z,61.43
2017-08-03T02:39:27.407Z,61.4
2017-08-03T02:40:07.865Z,61.43
2017-08-03T02:40:48.322Z,61.91
2017-08-03T02:41:28.775Z,62.01
2017-08-03T02:42:09.237Z,61.98
2017-08-03T02:42:49.769Z,62.01
2017-08-03T02:43:30.216Z,62.07
2017-08-03T02:44:10.669Z,61.98
2017-08-03T02:44:51.127Z,62.37
2017-08-03T02:45:31.570Z,62.49
2017-08-03T02:46:12.024Z,62.4
2017-08-03T02:46:52.480Z,62.37
2017-08-03T02:47:32.940Z,62.37
2017-08-03T02:48:13.397Z,62.27
2017-08-03T02:48:53.855Z,62.27
2017-08-03T02:49:34.310Z,62.3
2017-08-03T02:50:14.765Z,62.17
2017-08-03T02:50:55.215Z,62.37
2017-08-03T02:51:35.672Z,62.59
2017-08-03T02:52:16.127Z,62.46
2017-08-03T02:52:56.594Z,62.46
2017-08-03T02:53:37.050Z,62.46
2017-08-03T02:54:17.506Z,62.37
2017-08-03T02:54:57.963Z,62.37
2017-08-03T02:55:38.416Z,62.27
2017-08-03T02:56:18.869Z,62.56
2017-08-03T02:56:59.327Z,62.49
2017-08-03T02:57:39.774Z,62.49
2017-08-03T02:58:20.247Z,62.79
2017-08-03T02:59:00.703Z,62.27
2017-08-03T02:59:41.154Z,62.79
2017-08-03T03:00:21.610Z,62.49
2017-08-03T03:01:02.041Z,62.2
2017-08-03T03:01:42.499Z,62.4
2017-08-03T03:02:22.956Z,62.79
2017-08-03T03:03:03.409Z,62.27
2017-08-03T03:03:43.866Z,62.3
2017-08-03T03:04:24.316Z,62.3
2017-08-03T03:05:04.762Z,62.3
2017-08-03T03:05:45.222Z,62.07
2017-08-03T03:06:25.684Z,62.17
2017-08-03T03:07:06.143Z,62.07
2017-08-03T03:07:46.604Z,62.3
2017-08-03T03:08:27.057Z,62.17
2017-08-03T03:09:07.515Z,62.4
2017-08-03T03:09:47.969Z,61.98
2017-08-03T03:10:28.428Z,62.17
2017-08-03T03:11:08.887Z,61.98
2017-08-03T03:11:49.343Z,62.1
2017-08-03T03:12:29.799Z,62.07
2017-08-03T03:13:10.257Z,62.2
2017-08-03T03:13:50.720Z,62.01
2017-08-03T03:14:31.178Z,62.3
2017-08-03T03:15:11.626Z,62.01
2017-08-03T03:15:52.086Z,62.2
2017-08-03T03:16:32.537Z,62.37
2017-08-03T03:17:12.996Z,61.98
2017-08-03T03:17:53.453Z,62.1
2017-08-03T03:18:33.909Z,62.3
2017-08-03T03:19:14.361Z,62.3
2017-08-03T03:19:54.823Z,62.2
2017-08-03T03:20:35.284Z,62.4
2017-08-03T03:21:15.730Z,62.2
2017-08-03T03:21:56.192Z,62.49
2017-08-03T03:22:36.640Z,62.3
2017-08-03T03:23:17.110Z,62.2
2017-08-03T03:23:57.543Z,62.2
2017-08-03T03:24:38.003Z,62.1
2017-08-03T03:25:18.484Z,62.2
2017-08-03T03:25:58.924Z,62.2
2017-08-03T03:26:39.385Z,62.3
2017-08-03T03:27:19.843Z,62.4
2017-08-03T03:28:00.299Z,62.4
2017-08-03T03:28:40.755Z,62.2
2017-08-03T03:29:21.218Z,62.4
2017-08-03T03:30:01.670Z,62.59
2017-08-03T03:30:42.128Z,62.3
2017-08-03T03:31:22.569Z,62.1
2017-08-03T03:32:03.040Z,62.1
2017-08-03T03:32:43.501Z,62.3
2017-08-03T03:33:23.957Z,62.3
2017-08-03T03:34:04.434Z,62.3
2017-08-03T03:34:44.899Z,62.2
2017-08-03T03:35:25.370Z,62.2
2017-08-03T03:36:05.810Z,62.1
2017-08-03T03:36:46.267Z,62.33
2017-08-03T03:37:26.728Z,62.3
2017-08-03T03:38:07.190Z,62.3
2017-08-03T03:38:47.643Z,62.13
2017-08-03T03:39:28.097Z,62.62
2017-08-03T03:40:08.560Z,62.23
2017-08-03T03:40:49.021Z,62.62
2017-08-03T03:41:29.477Z,62.04
2017-08-03T03:42:09.944Z,62.23
2017-08-03T03:42:50.409Z,62.52
2017-08-03T03:43:30.869Z,62.72
2017-08-03T03:44:11.325Z,62.52
2017-08-03T03:44:51.778Z,62.33
2017-08-03T03:45:32.233Z,62.2
2017-08-03T03:46:12.692Z,62.43
2017-08-03T03:46:53.149Z,62.23
2017-08-03T03:47:33.605Z,62.33
2017-08-03T03:48:14.065Z,62.2
2017-08-03T03:48:54.522Z,62.33
2017-08-03T03:49:34.982Z,62.23
2017-08-03T03:50:15.439Z,62.33
2017-08-03T03:50:55.902Z,62.33
2017-08-03T03:51:36.360Z,62.62
2017-08-03T03:52:16.819Z,62.72
2017-08-03T03:52:57.281Z,62.72
2017-08-03T03:53:37.741Z,62.82
2017-08-03T03:54:18.199Z,62.91
2017-08-03T03:54:58.655Z,62.72
2017-08-03T03:55:39.118Z,62.82
2017-08-03T03:56:19.568Z,62.72
2017-08-03T03:57:00.029Z,62.62
2017-08-03T03:57:40.487Z,62.91
2017-08-03T03:58:20.945Z,62.82
2017-08-03T03:59:01.399Z,62.62
2017-08-03T03:59:41.871Z,62.91
2017-08-03T04:00:22.322Z,62.72
2017-08-03T04:01:02.776Z,62.43
2017-08-03T04:01:43.231Z,62.82
2017-08-03T04:02:23.689Z,62.43
2017-08-03T04:03:04.150Z,62.72
2017-08-03T04:03:44.612Z,62.52
2017-08-03T04:04:25.068Z,62.43
2017-08-03T04:05:05.517Z,62.91
2017-08-03T04:05:45.975Z,62.72
2017-08-03T04:06:26.438Z,62.46
2017-08-03T04:07:06.904Z,62.43
2017-08-03T04:07:47.362Z,62.23
2017-08-03T04:08:27.804Z,62.07
2017-08-03T04:09:08.257Z,62.16
2017-08-03T04:09:48.717Z,62.36
2017-08-03T04:10:29.181Z,62.07
2017-08-03T04:11:09.630Z,62.26
2017-08-03T04:11:50.087Z,62.55
2017-08-03T04:12:30.547Z,62.36
2017-08-03T04:13:10.998Z,62.36
2017-08-03T04:13:51.449Z,62.26
2017-08-03T04:14:31.913Z,62.46
2017-08-03T04:15:12.372Z,62.36
2017-08-03T04:15:52.831Z,62.36
2017-08-03T04:16:33.279Z,62.16
2017-08-03T04:17:13.733Z,62.46
2017-08-03T04:17:54.191Z,62.16
2017-08-03T04:18:34.646Z,62.16
2017-08-03T04:19:15.103Z,61.98
2017-08-03T04:19:55.556Z,61.88
2017-08-03T04:20:36.015Z,61.88
2017-08-03T04:21:16.473Z,61.88
2017-08-03T04:21:56.935Z,61.78
2017-08-03T04:22:37.388Z,61.49
2017-08-03T04:23:17.870Z,61.49
2017-08-03T04:23:58.315Z,61.78
2017-08-03T04:24:38.770Z,61.98
2017-08-03T04:25:19.226Z,61.68
2017-08-03T04:25:59.687Z,61.58
2017-08-03T04:26:40.150Z,61.49
2017-08-03T04:27:20.611Z,61.58
2017-08-03T04:28:01.067Z,61.58
2017-08-03T04:28:41.526Z,61.88
2017-08-03T04:29:21.985Z,61.98
2017-08-03T04:30:02.456Z,61.68
2017-08-03T04:30:42.900Z,61.58
2017-08-03T04:31:23.362Z,61.71
2017-08-03T04:32:03.822Z,61.49
2017-08-03T04:32:44.282Z,61.78
2017-08-03T04:33:24.727Z,61.88
2017-08-03T04:34:05.184Z,61.68
2017-08-03T04:34:45.640Z,61.78
2017-08-03T04:35:26.099Z,61.68
2017-08-03T04:36:06.555Z,61.58
2017-08-03T04:36:47.034Z,61.29
2017-08-03T04:37:27.490Z,61.19
2017-08-03T04:38:07.948Z,61
2017-08-03T04:38:48.410Z,61.39
2017-08-03T04:39:28.865Z,61.39
2017-08-03T04:40:09.325Z,61
2017-08-03T04:40:49.786Z,61.29
2017-08-03T04:41:30.241Z,61.49
2017-08-03T04:42:10.702Z,61
2017-08-03T04:42:51.155Z,61
2017-08-03T04:43:31.622Z,60.91
2017-08-03T04:44:12.078Z,61.22
2017-08-03T04:44:52.537Z,61.22
2017-08-03T04:45:32.993Z,61.1
2017-08-03T04:46:13.444Z,61.13
2017-08-03T04:46:53.899Z,61.19
2017-08-03T04:47:34.361Z,61.19
2017-08-03T04:48:14.818Z,61.29
2017-08-03T04:48:55.273Z,61.29
2017-08-03T04:49:35.731Z,61.29
2017-08-03T04:50:16.189Z,61.19
2017-08-03T04:50:56.644Z,61.19
2017-08-03T04:51:37.101Z,61.39
2017-08-03T04:52:17.560Z,61.39
2017-08-03T04:52:58.017Z,61.1
2017-08-03T04:53:38.467Z,61.1
2017-08-03T04:54:18.927Z,61.1
2017-08-03T04:54:59.377Z,61.1
2017-08-03T04:55:39.866Z,61.29
2017-08-03T04:56:20.286Z,60.91
2017-08-03T04:57:00.744Z,60.91
2017-08-03T04:57:41.201Z,60.91
2017-08-03T04:58:21.658Z,60.81
2017-08-03T04:59:02.109Z,60.84
2017-08-03T04:59:42.575Z,60.84
2017-08-03T05:00:23.040Z,60.81
2017-08-03T05:01:03.501Z,60.81
2017-08-03T05:01:43.960Z,61
2017-08-03T05:02:24.425Z,61
2017-08-03T05:03:04.867Z,60.64
2017-08-03T05:03:45.325Z,60.84
2017-08-03T05:04:25.776Z,60.91
2017-08-03T05:05:06.237Z,60.81
2017-08-03T05:05:46.693Z,61.1
2017-08-03T05:06:27.153Z,61
2017-08-03T05:07:07.611Z,60.55
2017-08-03T05:07:48.060Z,60.52
2017-08-03T05:08:28.516Z,60.61
2017-08-03T05:09:08.973Z,60.71
2017-08-03T05:09:49.450Z,60.61
2017-08-03T05:10:29.884Z,61
2017-08-03T05:11:10.348Z,61
2017-08-03T05:11:50.797Z,60.71
2017-08-03T05:12:31.248Z,60.91
2017-08-03T05:13:11.708Z,60.91
2017-08-03T05:13:52.163Z,61
2017-08-03T05:14:32.624Z,61
2017-08-03T05:15:13.088Z,60.91
2017-08-03T05:15:53.548Z,60.91
2017-08-03T05:16:33.999Z,60.71
2017-08-03T05:17:14.456Z,60.81
2017-08-03T05:17:54.917Z,60.71
2017-08-03T05:18:35.374Z,60.74
2017-08-03T05:19:15.833Z,60.94
2017-08-03T05:19:56.291Z,60.91
2017-08-03T05:20:36.785Z,60.91
2017-08-03T05:21:17.240Z,60.91
2017-08-03T05:21:57.702Z,60.81
2017-08-03T05:22:38.157Z,60.91
2017-08-03T05:23:18.608Z,60.81
2017-08-03T05:23:59.067Z,60.91
2017-08-03T05:24:39.522Z,60.91
2017-08-03T05:25:19.996Z,60.91
2017-08-03T05:26:00.423Z,60.84
2017-08-03T05:26:40.882Z,60.61
2017-08-03T05:28:38.642Z,60.81
2017-08-03T05:29:19.098Z,60.64
2017-08-03T05:29:59.562Z,60.52
2017-08-03T05:30:40.019Z,60.52
2017-08-03T05:31:20.476Z,60.52
2017-08-03T05:32:00.934Z,60.42
2017-08-03T05:32:41.393Z,60.52
2017-08-03T05:33:21.826Z,60.42
2017-08-03T05:34:02.289Z,60.64
2017-08-03T05:34:42.745Z,60.52
2017-08-03T05:35:23.200Z,60.42
2017-08-03T05:36:03.657Z,60.61
2017-08-03T05:36:44.110Z,60.42
2017-08-03T05:37:24.568Z,60.23
2017-08-03T05:38:05.033Z,60.61
2017-08-03T05:38:45.495Z,60.52
2017-08-03T05:39:25.942Z,60.52
2017-08-03T05:40:06.402Z,60.32
2017-08-03T05:40:46.869Z,60.52
2017-08-03T05:41:27.314Z,60.52
2017-08-03T05:42:07.765Z,60.52
2017-08-03T05:42:48.225Z,60.42
2017-08-03T05:43:28.714Z,60.42
2017-08-03T05:44:09.195Z,60.32
2017-08-03T05:44:49.651Z,60.52
2017-08-03T05:45:30.104Z,60.42
2017-08-03T05:46:10.551Z,60.32
2017-08-03T05:46:51.006Z,60.52
2017-08-03T05:47:31.458Z,60.32
2017-08-03T05:48:11.911Z,60.42
2017-08-03T05:48:52.363Z,60.52
2017-08-03T05:49:32.855Z,60.32
2017-08-03T05:50:13.306Z,60.52
2017-08-03T05:50:53.761Z,60.42
2017-08-03T05:51:34.217Z,60.45
2017-08-03T05:52:14.673Z,60.32
2017-08-03T05:52:55.123Z,60.13
2017-08-03T05:53:35.571Z,60.32
2017-08-03T05:54:16.031Z,60.42
2017-08-03T05:54:56.495Z,59.94
2017-08-03T05:55:36.951Z,60.32
2017-08-03T05:56:17.405Z,60.23
2017-08-03T05:56:57.863Z,60.23
2017-08-03T05:57:38.316Z,60.13
2017-08-03T05:58:18.771Z,60.25
2017-08-03T05:58:59.235Z,60.32
2017-08-03T05:59:39.708Z,60.45
2017-08-03T06:00:20.134Z,60.42
2017-08-03T06:01:00.590Z,60.32
2017-08-03T06:01:41.051Z,60.32
2017-08-03T06:02:21.515Z,60.42
2017-08-03T06:03:01.982Z,60.32
2017-08-03T06:03:42.423Z,60.32
2017-08-03T06:04:22.880Z,60.32
2017-08-03T06:05:03.337Z,60.13
2017-08-03T06:05:43.790Z,60.13
2017-08-03T06:06:24.248Z,60.42
2017-08-03T06:07:04.700Z,60.32
2017-08-03T06:07:45.158Z,60.45
2017-08-03T06:08:25.625Z,60.32
2017-08-03T06:09:06.061Z,60.42
2017-08-03T06:09:46.521Z,60.16
2017-08-03T06:10:26.979Z,60.32
2017-08-03T06:11:07.443Z,60.32
2017-08-03T06:11:47.907Z,60.23
2017-08-03T06:12:28.359Z,60.23
2017-08-03T06:13:08.815Z,60.23
2017-08-03T06:13:49.271Z,60.42
2017-08-03T06:14:29.726Z,60.32
2017-08-03T06:15:10.180Z,60.23
2017-08-03T06:15:50.639Z,60.35
2017-08-03T06:16:31.098Z,60.32
2017-08-03T06:17:11.550Z,60.32
2017-08-03T06:17:52.036Z,60.32
2017-08-03T06:18:32.491Z,60.32
2017-08-03T06:19:12.940Z,60.13
2017-08-03T06:19:53.398Z,60.23
2017-08-03T06:20:33.850Z,60.13
2017-08-03T06:21:14.310Z,60.23
2017-08-03T06:21:54.757Z,60.32
2017-08-03T06:22:35.207Z,60.32
2017-08-03T06:23:15.664Z,60.13
2017-08-03T06:23:56.122Z,60.32
2017-08-03T06:24:36.580Z,60.13
2017-08-03T06:25:17.040Z,60.13
2017-08-03T06:25:57.519Z,60.13
2017-08-03T06:26:37.949Z,60.16
2017-08-03T06:27:18.406Z,60.32
2017-08-03T06:27:58.871Z,60.13
2017-08-03T06:28:39.321Z,60.32
2017-08-03T06:29:19.776Z,60.13
2017-08-03T06:30:00.244Z,60.32
2017-08-03T06:30:40.706Z,60.32
2017-08-03T06:31:21.160Z,60.42
2017-08-03T06:32:01.616Z,60.32
2017-08-03T06:32:42.085Z,60.32
2017-08-03T06:33:22.545Z,60.42
2017-08-03T06:34:03.004Z,60.32
2017-08-03T06:34:43.461Z,60.42
2017-08-03T06:35:23.914Z,60.32
2017-08-03T06:36:04.364Z,60.16
2017-08-03T06:36:44.821Z,60.23
2017-08-03T06:37:25.276Z,60.13
2017-08-03T06:38:05.738Z,60.23
2017-08-03T06:38:46.183Z,60.32
2017-08-03T06:39:26.641Z,60.23
2017-08-03T06:40:07.096Z,60.52
2017-08-03T06:40:47.559Z,60.32
2017-08-03T06:41:28.043Z,60.32
2017-08-03T06:42:08.483Z,60.32
2017-08-03T06:42:48.938Z,60.45
2017-08-03T06:43:29.396Z,60.32
2017-08-03T06:44:09.851Z,60.42
2017-08-03T06:44:50.313Z,60.32
2017-08-03T06:45:30.757Z,60.32
2017-08-03T06:46:11.249Z,60.32
2017-08-03T06:46:51.697Z,60.32
2017-08-03T06:47:32.154Z,60.32
2017-08-03T06:48:12.603Z,60.32
2017-08-03T06:48:53.052Z,60.42
2017-08-03T06:49:33.514Z,60.52
2017-08-03T06:50:13.969Z,60.35
2017-08-03T06:50:54.425Z,60.52
2017-08-03T06:51:34.896Z,60.52
2017-08-03T06:52:15.333Z,60.32
2017-08-03T06:52:55.781Z,60.23
2017-08-03T06:53:36.238Z,60.23
2017-08-03T06:54:16.696Z,60.32
2017-08-03T06:54:57.154Z,60.23
2017-08-03T06:55:37.615Z,60.32
2017-08-03T06:56:18.069Z,60.35
2017-08-03T06:56:58.525Z,60.13
2017-08-03T06:57:38.981Z,60.32
2017-08-03T06:58:19.436Z,60.32
2017-08-03T06:58:59.907Z,60.23
2017-08-03T06:59:40.357Z,60.32
2017-08-03T07:00:20.813Z,60.32
2017-08-03T07:01:01.264Z,60.32
2017-08-03T07:01:41.729Z,59.94
2017-08-03T07:02:22.170Z,60.42
2017-08-03T07:03:02.628Z,60.52
2017-08-03T07:03:43.080Z,60.42
2017-08-03T07:04:23.544Z,60.42
2017-08-03T07:05:03.997Z,60.32
2017-08-03T07:05:44.453Z,60.52
2017-08-03T07:06:24.917Z,60.42
2017-08-03T07:07:05.371Z,60.23
2017-08-03T07:07:45.816Z,59.94
2017-08-03T07:08:26.279Z,60.42
2017-08-03T07:09:06.736Z,60.42
2017-08-03T07:09:47.178Z,60.42
2017-08-03T07:10:27.687Z,60.32
2017-08-03T07:11:08.098Z,60.32
2017-08-03T07:11:48.558Z,60.32
2017-08-03T07:12:29.010Z,60.23
2017-08-03T07:13:09.452Z,60.32
2017-08-03T07:13:49.910Z,60.25
2017-08-03T07:14:30.374Z,60.35
2017-08-03T07:16:23.061Z,60.23
2017-08-03T07:17:03.520Z,60.32
2017-08-03T07:17:43.978Z,60.23
2017-08-03T07:18:24.437Z,60.32
2017-08-03T07:19:04.894Z,60.23
2017-08-03T07:19:45.345Z,60.42
2017-08-03T07:20:25.805Z,60.32
2017-08-03T07:21:06.264Z,60.32
2017-08-03T07:21:46.723Z,60.32
2017-08-03T07:22:27.179Z,60.52
2017-08-03T07:23:07.629Z,60.32
2017-08-03T07:23:48.126Z,60.32
2017-08-03T07:24:28.584Z,60.32
2017-08-03T07:25:09.113Z,60.32
2017-08-03T07:25:49.571Z,60.32
2017-08-03T07:26:30.011Z,60.32
2017-08-03T07:27:10.562Z,60.52
2017-08-03T07:28:58.071Z,60.32
2017-08-03T07:29:38.519Z,60.32
2017-08-03T07:30:18.978Z,60.32
2017-08-03T07:30:59.453Z,60.13
2017-08-03T07:31:39.970Z,60.32
2017-08-03T07:32:20.352Z,60.23
2017-08-03T07:33:00.807Z,60.32
2017-08-03T07:33:41.256Z,60.32
2017-08-03T07:34:21.712Z,60.23
2017-08-03T07:35:02.159Z,60.25
2017-08-03T07:35:42.614Z,60.32
2017-08-03T07:36:23.067Z,60.32
2017-08-03T07:37:03.519Z,60.32
2017-08-03T07:37:43.971Z,60.32
2017-08-03T07:38:24.431Z,60.32
2017-08-03T07:39:04.881Z,60.35
2017-08-03T07:39:45.328Z,60.32
2017-08-03T07:40:25.803Z,60.32
2017-08-03T07:41:06.280Z,60.23
2017-08-03T07:41:46.766Z,60.13
2017-08-03T07:42:27.219Z,60.13
2017-08-03T07:43:07.676Z,60.32
2017-08-03T07:43:48.132Z,60.13
2017-08-03T07:44:28.594Z,60.32
2017-08-03T07:45:09.050Z,60.42
2017-08-03T07:45:50.064Z,60.13
2017-08-03T07:46:30.450Z,60.13
2017-08-03T07:47:10.903Z,60.25
2017-08-03T07:47:51.377Z,60.13
2017-08-03T07:48:32.033Z,60.23
2017-08-03T07:49:12.512Z,60.23
2017-08-03T07:49:52.970Z,60.13
2017-08-03T07:50:33.413Z,60.23
2017-08-03T07:51:13.870Z,60.23
2017-08-03T07:51:54.325Z,60.45
2017-08-03T07:52:34.774Z,60.13
2017-08-03T07:53:15.246Z,60.35
2017-08-03T07:53:55.699Z,60.32
2017-08-03T07:54:36.153Z,60.35
2017-08-03T07:55:16.594Z,60.32
2017-08-03T07:55:57.055Z,60.35
2017-08-03T07:56:37.515Z,60.52
2017-08-03T07:57:18.262Z,60.52
2017-08-03T07:57:58.729Z,60.45
2017-08-03T07:58:39.151Z,60.32
2017-08-03T07:59:19.602Z,60.55
2017-08-03T08:00:00.055Z,60.52
2017-08-03T08:00:40.510Z,60.42
2017-08-03T08:01:20.967Z,60.32
2017-08-03T08:02:01.424Z,60.32
2017-08-03T08:02:41.881Z,60.52
2017-08-03T08:03:22.348Z,60.52
2017-08-03T08:04:02.786Z,60.13
2017-08-03T08:04:43.242Z,60.32
2017-08-03T08:05:23.698Z,60.35
2017-08-03T08:06:04.156Z,60.42
2017-08-03T08:06:44.597Z,60.32
2017-08-03T08:07:25.052Z,60.32
2017-08-03T08:08:05.510Z,60.42
2017-08-03T08:08:45.970Z,60.32
2017-08-03T08:09:26.427Z,60.32
2017-08-03T08:10:06.883Z,60.52
2017-08-03T08:10:47.337Z,60.32
2017-08-03T08:11:27.795Z,60.35
2017-08-03T08:12:08.240Z,60.52
2017-08-03T08:12:48.700Z,60.35
2017-08-03T08:13:29.156Z,60.13
2017-08-03T08:14:09.861Z,60.13
2017-08-03T08:14:50.232Z,60.42
2017-08-03T08:15:30.691Z,60.23
2017-08-03T08:16:11.143Z,60.16
2017-08-03T08:16:51.597Z,60.23
2017-08-03T08:17:32.054Z,60.45
2017-08-03T08:18:12.507Z,60.42
2017-08-03T08:18:53.112Z,60.23
2017-08-03T08:19:33.408Z,60.32
2017-08-03T08:20:13.864Z,60.55
2017-08-03T08:20:54.320Z,60.13
2017-08-03T08:21:34.770Z,60.32
2017-08-03T08:22:15.227Z,60.32
2017-08-03T08:22:55.667Z,60.35
2017-08-03T08:23:36.122Z,60.32
2017-08-03T08:24:16.582Z,60.52
2017-08-03T08:24:57.111Z,60.23
2017-08-03T08:25:37.558Z,60.32
2017-08-03T08:26:18.031Z,60.32
2017-08-03T08:26:58.490Z,60.32
2017-08-03T08:27:38.941Z,60.32
2017-08-03T08:28:19.402Z,60.32
2017-08-03T08:28:59.873Z,60.32
2017-08-03T08:29:40.323Z,60.32
2017-08-03T08:31:32.997Z,60.13
2017-08-03T08:32:13.460Z,60.32
2017-08-03T08:32:53.912Z,60.45
2017-08-03T08:33:34.356Z,60.52
2017-08-03T08:34:14.833Z,60.32
2017-08-03T08:34:55.341Z,60.52
2017-08-03T08:35:35.794Z,60.52
2017-08-03T08:36:16.256Z,60.13
2017-08-03T08:36:56.705Z,60.45
2017-08-03T08:37:37.160Z,60.23
2017-08-03T08:38:17.607Z,60.23
2017-08-03T08:38:58.071Z,60.13
2017-08-03T08:39:38.527Z,60.52
2017-08-03T08:40:18.975Z,60.23
2017-08-03T08:40:59.429Z,60.23
2017-08-03T08:41:39.868Z,60.23
2017-08-03T08:42:20.320Z,60.45
2017-08-03T08:43:00.775Z,60.23
2017-08-03T08:43:41.234Z,60.32
2017-08-03T08:44:21.691Z,60.23
2017-08-03T08:45:02.143Z,60.23
2017-08-03T08:45:42.592Z,60.32
2017-08-03T08:46:23.054Z,60.13
2017-08-03T08:47:03.501Z,60.32
2017-08-03T08:47:43.958Z,60.32
2017-08-03T08:48:24.410Z,60.25
2017-08-03T08:49:04.860Z,60.32
2017-08-03T08:49:45.339Z,60.32